Airfield :







YOU CAN JOIN US ON...

 
LOGIN :

Register | Disclaimer

   EN    FR    IT 

 









Legend :    VFR   Marginal VFR   IFR   Intensive IFR   Very Intensive IFR
Visi :
Ceiling :
>= 8 km
>= 3000ft
5 to 8 km
1000 to 3000 ft
1500m to 5 km
500 to 1000 ft
800 to 1500m
200 to 500 ft
< 800m
< 200 ft
Symbols :   Thunderstorms  Fog  Heavy snow  Heavy precipitations  Wind > 20 kt






- Airport Elevation : 474 ft


KPTD - Potsdam Municipal-Damon field

CURRENT METAR :
  • 090735Z AUTO 01006KT 9SM OVC003 17/16 A2978 RMK AO2

EXPIRED METARs :
  • 090715Z AUTO 36008KT 4SM -RA OVC003 17/17 A2977 RMK AO2
  • 090655Z AUTO 35008KT 3SM BR BKN003 BKN010 OVC015 19/18 A2976 RMK AO2
  • 090635Z AUTO 35009KT 8SM FEW003 BKN013 OVC017 20/19 A2974 RMK AO2
  • 090615Z AUTO 36006KT 7SM OVC014 20/20 A2972 RMK AO2
  • 090555Z AUTO 03006KT 6SM BR FEW009 OVC015 20/20 A2972 RMK AO2
  • 090535Z AUTO 03007KT 7SM BKN017 OVC024 22/20 A2973 RMK AO2
  • 090515Z AUTO 21006G12KT 10SM FEW004 BKN024 OVC049 24/23 A2973 RMK AO2
  • 090455Z AUTO 22010G17KT 3SM RA FEW004 SCT017 BKN034 24/23 A2974 RMK AO2 P0008

TAF N/A
KZBW FIR / North America



MET'MAP, your aeronautical weather chart ! - Copyright ORBIFLY December 2007 - Disclaimer

ORBIFLY MET'MAP TEAM :

Programming & Development : Alexandra Zaïnal
Original concept : Baudouin d'Aumeries
Technical & hardware support : Manuel Goepfert
Assistance : Marc-Olivier Méhu




SOURCES & CREDITS :

   NOAA